Time;durP1;ratioP1;P1;durP2;ratioP2;P2;SDS_P1;SDS_P2;PMS_P1;PMS_P2;Temp;Humidity;BMP_temperature;BMP_pressure;BME280_temperature;BME280_humidity;BME280_pressure;Samples;Min_cycle;Max_cycle;Signal;HPM_P1;HPM_P2
2021/08/19 00:00:51;;;;;;;14.57;9.13;;;;;;;22.93;100.00;100875.03;4884308;29;20454;-67
2021/08/19 00:03:38;;;;;;;33.67;26.98;;;;;;;23.04;100.00;100875.19;4885227;29;20029;-66
2021/08/19 00:06:23;;;;;;;10.35;7.15;;;;;;;22.47;100.00;100884.31;4884407;29;20115;-66
2021/08/19 00:09:09;;;;;;;6.82;5.18;;;;;;;22.08;100.00;100893.00;4884557;29;20369;-66
2021/08/19 00:11:55;;;;;;;6.57;5.28;;;;;;;22.12;100.00;100893.66;4885298;29;20029;-66
2021/08/19 00:17:25;;;;;;;8.68;5.60;;;;;;;22.52;100.00;100890.22;5428150;23;20049;-66
2021/08/19 00:20:12;;;;;;;8.88;6.50;;;;;;;22.15;100.00;100894.31;4902720;29;20043;-66
2021/08/19 00:22:59;;;;;;;10.30;7.32;;;;;;;22.18;100.00;100904.81;4901692;29;20067;-67
2021/08/19 00:25:45;;;;;;;9.52;5.90;;;;;;;22.18;100.00;100903.97;4896727;29;20043;-66
2021/08/19 00:28:31;;;;;;;8.30;6.30;;;;;;;22.24;100.00;100907.09;4869957;29;20192;-66
2021/08/19 00:31:17;;;;;;;7.43;5.65;;;;;;;21.94;100.00;100906.31;4882573;29;20037;-67
2021/08/19 00:34:03;;;;;;;8.70;6.88;;;;;;;21.85;100.00;100906.88;4869605;29;20431;-66
2021/08/19 00:36:50;;;;;;;8.18;6.13;;;;;;;21.99;100.00;100912.22;4882534;29;20047;-66
2021/08/19 00:39:38;;;;;;;6.20;4.85;;;;;;;21.74;100.00;100916.50;4882496;29;20089;-66
2021/08/19 00:42:24;;;;;;;8.05;5.00;;;;;;;21.98;100.00;100907.84;4882960;29;20029;-66
2021/08/19 00:45:10;;;;;;;5.32;4.22;;;;;;;21.93;100.00;100901.94;4882083;29;20131;-66
2021/08/19 00:47:56;;;;;;;4.60;3.60;;;;;;;21.80;100.00;100900.09;4882175;29;20029;-66
2021/08/19 00:50:43;;;;;;;4.32;3.38;;;;;;;21.94;100.00;100903.66;4882156;29;20362;-66
2021/08/19 00:53:32;;;;;;;7.45;3.50;;;;;;;21.80;100.00;100895.63;4882015;29;20043;-65
2021/08/19 00:56:17;;;;;;;4.40;3.30;;;;;;;21.72;100.00;100897.03;4882158;29;20037;-66
2021/08/19 01:07:58;;;;;;;5.93;4.57;;;;;;;21.94;100.00;100892.13;5025274;23;20374;-66
2021/08/19 01:10:45;;;;;;;6.88;4.13;;;;;;;21.82;100.00;100892.88;4918871;29;20036;-66
2021/08/19 01:13:33;;;;;;;4.60;4.00;;;;;;;21.54;100.00;100893.63;4919622;29;20106;-66
2021/08/19 01:16:19;;;;;;;9.23;6.35;;;;;;;21.80;100.00;100884.97;4908846;29;20041;-66
2021/08/19 01:19:05;;;;;;;5.10;3.95;;;;;;;21.59;100.00;100886.25;4901168;29;20060;-67
2021/08/19 01:21:52;;;;;;;5.13;3.58;;;;;;;21.53;100.00;100889.25;4888481;29;20052;-66
2021/08/19 01:24:38;;;;;;;4.57;3.55;;;;;;;21.64;100.00;100889.47;4901778;29;20026;-67
2021/08/19 01:27:24;;;;;;;5.13;3.60;;;;;;;21.46;100.00;100884.38;4900819;29;20029;-67
2021/08/19 01:30:10;;;;;;;4.72;3.25;;;;;;;21.52;100.00;100886.69;4900743;29;20050;-66
2021/08/19 01:32:56;;;;;;;4.03;2.97;;;;;;;21.81;100.00;100884.00;4888149;29;20509;-66
2021/08/19 01:35:44;;;;;;;3.75;2.85;;;;;;;21.99;100.00;100888.19;4900559;29;20035;-67
2021/08/19 01:38:31;;;;;;;4.70;3.17;;;;;;;21.80;100.00;100884.09;4888521;29;20430;-66
2021/08/19 01:41:18;;;;;;;3.67;3.17;;;;;;;21.49;100.00;100885.06;4900363;29;20032;-67
2021/08/19 01:44:07;;;;;;;5.03;3.03;;;;;;;21.45;100.00;100887.97;4887788;29;20043;-67
2021/08/19 01:53:49;;;;;;;4.28;3.55;;;;;;;21.58;100.00;100897.84;5601558;23;20140;-66
2021/08/19 01:56:35;;;;;;;4.40;3.28;;;;;;;21.37;100.00;100903.56;4889108;29;20447;-66
2021/08/19 01:59:22;;;;;;;4.70;3.60;;;;;;;21.64;100.00;100907.28;4882499;29;20041;-66
2021/08/19 02:02:08;;;;;;;6.13;3.70;;;;;;;21.49;100.00;100911.72;4880698;29;20025;-66
2021/08/19 02:04:53;;;;;;;4.25;3.80;;;;;;;21.62;100.00;100902.03;4881291;29;20084;-66
2021/08/19 02:07:39;;;;;;;4.78;3.85;;;;;;;21.61;100.00;100911.00;4882658;29;20025;-66
2021/08/19 02:10:25;;;;;;;6.03;4.05;;;;;;;21.99;100.00;100917.56;4882156;29;20041;-65
2021/08/19 02:13:13;;;;;;;4.80;4.25;;;;;;;21.74;100.00;100909.31;4868103;29;20385;-66
2021/08/19 02:16:01;;;;;;;5.68;4.10;;;;;;;21.62;100.00;100910.03;4880457;29;20021;-66
2021/08/19 02:18:46;;;;;;;5.63;3.95;;;;;;;21.63;100.00;100913.56;4880802;29;20039;-66
2021/08/19 02:21:32;;;;;;;5.88;4.00;;;;;;;21.44;100.00;100910.25;4867605;29;20419;-66
2021/08/19 02:24:18;;;;;;;5.68;4.20;;;;;;;21.74;100.00;100917.34;4880798;29;20434;-66
2021/08/19 02:27:04;;;;;;;5.28;4.13;;;;;;;21.82;100.00;100922.22;4882319;29;20068;-66
2021/08/19 02:29:50;;;;;;;5.50;3.95;;;;;;;21.89;100.00;100923.53;4880959;29;20414;-66
2021/08/19 02:32:36;;;;;;;5.05;4.10;;;;;;;21.84;100.00;100931.84;4880579;29;20037;-66
2021/08/19 02:35:29;;;;;;;7.07;4.22;;;;;;;21.69;100.00;100939.84;4880270;29;20025;-66
2021/08/19 02:38:15;;;;;;;5.32;4.15;;;;;;;21.59;100.00;100936.03;4867856;29;20068;-66
2021/08/19 02:41:00;;;;;;;4.75;4.25;;;;;;;21.87;100.00;100942.31;4880131;29;20040;-66
2021/08/19 02:43:46;;;;;;;6.25;4.32;;;;;;;21.96;100.00;100949.78;4880424;29;20115;-66
2021/08/19 02:46:32;;;;;;;4.90;4.03;;;;;;;22.02;100.00;100951.22;4881466;29;20387;-66
2021/08/19 02:49:18;;;;;;;6.20;4.13;;;;;;;22.30;100.00;100946.75;4880700;29;20056;-66
2021/08/19 02:52:04;;;;;;;4.75;4.13;;;;;;;22.05;100.00;100954.56;4880183;29;20116;-66
2021/08/19 02:54:50;;;;;;;8.07;4.65;;;;;;;21.59;100.00;100954.69;4880009;29;20089;-66
2021/08/19 02:57:36;;;;;;;6.25;4.22;;;;;;;21.73;100.00;100952.97;4880788;29;20029;-67
2021/08/19 03:00:22;;;;;;;5.65;4.20;;;;;;;21.73;100.00;100942.28;4867481;29;20075;-66
2021/08/19 03:03:08;;;;;;;6.82;4.28;;;;;;;21.65;100.00;100949.00;4880258;29;20119;-65
2021/08/19 03:05:53;;;;;;;7.35;4.30;;;;;;;21.84;100.00;100953.19;4881397;29;20414;-65
2021/08/19 03:08:39;;;;;;;7.35;4.60;;;;;;;21.84;100.00;100945.19;4880240;29;20029;-65
2021/08/19 03:11:25;;;;;;;5.40;4.60;;;;;;;22.06;100.00;100948.25;4867876;29;20454;-65
2021/08/19 03:14:10;;;;;;;5.80;4.68;;;;;;;21.73;100.00;100944.09;4881681;29;20052;-65
2021/08/19 03:16:57;;;;;;;10.88;4.90;;;;;;;21.78;100.00;100942.88;4883489;29;20069;-66
2021/08/19 03:19:43;;;;;;;6.80;4.80;;;;;;;21.76;100.00;100952.78;4883845;29;20351;-66
2021/08/19 03:22:28;;;;;;;5.88;4.32;;;;;;;22.08;100.00;100948.16;4883598;29;20021;-66
2021/08/19 03:25:14;;;;;;;7.57;4.88;;;;;;;22.08;100.00;100956.19;4883811;29;20056;-66
2021/08/19 03:28:04;;;;;;;8.40;4.55;;;;;;;21.61;100.00;100951.00;4870395;29;20420;-66
2021/08/19 03:30:51;;;;;;;6.22;4.93;;;;;;;21.59;100.00;100963.56;4885021;29;20029;-67
2021/08/19 03:33:37;;;;;;;5.97;4.65;;;;;;;21.18;100.00;100958.91;4883962;29;20036;-67
2021/08/19 03:36:25;;;;;;;8.68;5.18;;;;;;;21.16;100.00;100964.31;4885225;29;20040;-66
2021/08/19 03:39:10;;;;;;;7.43;4.95;;;;;;;21.17;100.00;100966.03;4884586;29;20430;-67
2021/08/19 03:41:56;;;;;;;8.02;4.93;;;;;;;21.45;100.00;100968.84;4883486;29;20073;-65
2021/08/19 03:44:42;;;;;;;6.38;5.13;;;;;;;21.39;100.00;100971.00;4883541;29;20060;-67
2021/08/19 03:47:28;;;;;;;6.72;5.43;;;;;;;21.22;100.00;100979.13;4884885;29;20030;-67
2021/08/19 03:50:14;;;;;;;7.07;5.38;;;;;;;21.26;100.00;100986.81;4883440;29;20379;-67
2021/08/19 03:53:00;;;;;;;7.00;5.20;;;;;;;20.91;100.00;101001.28;4870856;29;20073;-66
2021/08/19 03:55:45;;;;;;;7.22;5.15;;;;;;;20.92;100.00;101005.66;4883124;29;20032;-65
2021/08/19 03:58:31;;;;;;;5.00;4.10;;;;;;;21.06;100.00;101013.72;4882955;29;20398;-65
2021/08/19 04:01:17;;;;;;;5.90;3.80;;;;;;;21.10;100.00;101015.28;4883418;29;20037;-65
2021/08/19 04:04:03;;;;;;;4.55;3.92;;;;;;;20.98;100.00;101018.63;4884527;29;20040;-66
2021/08/19 04:06:48;;;;;;;4.93;3.70;;;;;;;21.23;100.00;101018.13;4882811;29;20033;-66
2021/08/19 04:09:34;;;;;;;5.05;3.88;;;;;;;21.65;100.00;101015.66;4884570;29;20128;-66
2021/08/19 04:12:20;;;;;;;7.15;4.00;;;;;;;21.88;100.00;101015.22;4885132;29;20454;-66
2021/08/19 04:15:06;;;;;;;4.75;3.70;;;;;;;21.42;100.00;101017.00;4884192;29;20033;-66
2021/08/19 04:17:52;;;;;;;6.15;3.28;;;;;;;21.36;100.00;101017.34;4882997;29;20103;-66
2021/08/19 04:20:38;;;;;;;4.97;3.40;;;;;;;21.54;100.00;101018.94;4882934;29;20439;-66
2021/08/19 04:23:24;;;;;;;6.07;3.03;;;;;;;21.34;100.00;101016.56;4884194;29;20040;-66
2021/08/19 04:26:11;;;;;;;5.68;3.50;;;;;;;21.18;100.00;101017.53;4881990;29;20029;-66
2021/08/19 04:28:57;;;;;;;6.47;3.50;;;;;;;21.64;100.00;101017.50;4882457;29;20103;-66
2021/08/19 04:31:43;;;;;;;5.57;3.67;;;;;;;22.01;100.00;101014.41;4882767;29;20040;-66
2021/08/19 04:34:28;;;;;;;7.40;3.75;;;;;;;21.80;100.00;101021.00;4882911;29;20036;-66
2021/08/19 04:37:14;;;;;;;10.02;3.67;;;;;;;22.01;100.00;101016.19;4869630;29;20407;-66
2021/08/19 04:40:04;;;;;;;6.25;3.75;;;;;;;21.98;100.00;101019.91;4882264;29;20041;-66
2021/08/19 04:42:50;;;;;;;4.68;3.60;;;;;;;21.59;100.00;101024.03;4882514;29;20033;-66
2021/08/19 04:45:35;;;;;;;5.60;3.47;;;;;;;21.87;100.00;101025.03;4882252;29;20037;-67
2021/08/19 04:48:21;;;;;;;6.28;3.60;;;;;;;21.94;100.00;101028.22;4870302;29;20041;-67
2021/08/19 04:51:07;;;;;;;6.65;3.75;;;;;;;22.12;100.00;101022.63;4882255;29;20093;-66
2021/08/19 04:53:53;;;;;;;4.93;3.63;;;;;;;21.73;100.00;101024.09;4881216;29;20056;-67
2021/08/19 04:56:38;;;;;;;6.32;3.70;;;;;;;22.06;100.00;101031.00;4883689;29;20465;-67
2021/08/19 04:59:24;;;;;;;6.38;3.88;;;;;;;21.70;100.00;101035.81;4881995;29;20033;-66
2021/08/19 05:02:10;;;;;;;4.90;3.38;;;;;;;21.85;100.00;101026.94;4883928;29;20106;-66
2021/08/19 05:04:56;;;;;;;4.53;3.15;;;;;;;21.88;100.00;101028.56;4883340;29;20032;-66
2021/08/19 05:07:41;;;;;;;7.18;4.00;;;;;;;21.92;100.00;101038.97;4881828;29;20033;-66
2021/08/19 05:10:31;;;;;;;6.13;3.55;;;;;;;21.64;100.00;101033.50;4882824;29;20417;-64
2021/08/19 05:13:17;;;;;;;4.43;3.65;;;;;;;21.67;100.00;101033.31;4882069;29;20070;-67
2021/08/19 05:16:04;;;;;;;6.95;3.67;;;;;;;21.70;100.00;101037.63;4882636;29;20064;-66
2021/08/19 05:18:50;;;;;;;3.72;3.00;;;;;;;21.85;100.00;101037.59;4881723;29;20108;-66
2021/08/19 05:21:36;;;;;;;5.93;3.05;;;;;;;21.92;100.00;101033.63;4881690;29;20024;-67
2021/08/19 05:24:21;;;;;;;5.28;2.92;;;;;;;22.01;100.00;101038.41;4882324;29;20048;-67
2021/08/19 05:27:07;;;;;;;3.08;2.55;;;;;;;22.27;100.00;101040.38;4881420;29;20088;-67
2021/08/19 05:29:53;;;;;;;5.03;2.63;;;;;;;22.15;100.00;101046.44;4881292;29;20056;-66
2021/08/19 05:32:38;;;;;;;3.15;2.50;;;;;;;21.77;100.00;101041.66;4883046;29;20127;-65
2021/08/19 05:35:24;;;;;;;3.70;2.70;;;;;;;22.35;100.00;101055.94;4881012;29;20099;-66
2021/08/19 05:38:10;;;;;;;6.28;3.05;;;;;;;22.27;100.00;101053.72;4882147;29;20029;-67
2021/08/19 05:40:56;;;;;;;4.00;2.72;;;;;;;22.23;100.00;101067.38;4880889;29;20033;-66
2021/08/19 05:43:41;;;;;;;5.15;2.72;;;;;;;22.27;100.00;101056.38;4881940;29;20033;-66
2021/08/19 05:46:27;;;;;;;6.13;2.90;;;;;;;22.08;100.00;101062.94;4868713;29;20116;-66
2021/08/19 05:49:13;;;;;;;3.33;2.60;;;;;;;22.31;100.00;101055.25;4881099;29;20124;-66
2021/08/19 05:51:59;;;;;;;4.43;2.50;;;;;;;22.34;100.00;101051.56;4882406;29;20029;-66
2021/08/19 05:54:44;;;;;;;6.15;2.45;;;;;;;22.28;100.00;101052.78;4882981;29;20470;-66
2021/08/19 05:57:31;;;;;;;5.38;2.80;;;;;;;22.79;100.00;101057.63;4881172;29;20074;-67
2021/08/19 06:00:21;;;;;;;3.33;2.30;;;;;;;22.44;100.00;101058.94;4881494;29;20037;-67
2021/08/19 06:03:07;;;;;;;7.63;2.92;;;;;;;22.78;100.00;101060.38;4881077;29;20107;-67
2021/08/19 06:05:53;;;;;;;3.65;2.67;;;;;;;22.84;100.00;101062.69;4879670;29;20033;-66
2021/08/19 06:08:39;;;;;;;2.70;2.28;;;;;;;22.98;100.00;101060.88;4881535;29;20037;-66
2021/08/19 06:11:25;;;;;;;3.38;2.28;;;;;;;22.94;100.00;101070.03;4882476;29;20450;-66
2021/08/19 06:14:10;;;;;;;3.40;2.40;;;;;;;23.09;100.00;101066.41;4881108;29;20116;-67
2021/08/19 06:16:56;;;;;;;3.42;2.22;;;;;;;23.02;100.00;101061.53;4880591;29;20033;-67
2021/08/19 06:19:42;;;;;;;4.82;2.15;;;;;;;22.75;100.00;101061.44;4867280;29;20056;-66
2021/08/19 06:22:28;;;;;;;2.17;1.98;;;;;;;23.30;100.00;101072.22;4881874;29;20065;-67
2021/08/19 06:25:14;;;;;;;5.65;2.42;;;;;;;23.47;100.00;101071.13;4882326;29;20055;-68
2021/08/19 06:27:59;;;;;;;2.50;1.83;;;;;;;23.05;100.00;101070.22;4880960;29;20025;-66
2021/08/19 06:30:45;;;;;;;3.00;1.90;;;;;;;23.28;100.00;101077.66;4880600;29;20103;-66
2021/08/19 06:33:31;;;;;;;2.30;1.60;;;;;;;23.63;100.00;101079.88;4882063;29;20033;-66
2021/08/19 06:36:17;;;;;;;2.58;1.88;;;;;;;23.14;100.00;101074.13;4880405;29;20449;-67
2021/08/19 06:39:03;;;;;;;5.57;2.00;;;;;;;23.06;100.00;101079.09;4880457;29;20033;-67
2021/08/19 06:41:48;;;;;;;2.88;1.70;;;;;;;23.25;100.00;101077.00;4882020;29;20045;-66
2021/08/19 06:44:35;;;;;;;2.45;2.00;;;;;;;23.16;100.00;101081.06;4866863;29;20036;-66
2021/08/19 06:47:20;;;;;;;3.33;1.95;;;;;;;23.07;100.00;101075.47;4879971;29;20438;-65
2021/08/19 06:50:07;;;;;;;2.17;1.70;;;;;;;22.69;100.00;101082.34;4881638;29;20408;-67
2021/08/19 06:52:53;;;;;;;3.08;1.95;;;;;;;22.89;100.00;101087.31;4880061;29;20427;-67
2021/08/19 06:55:39;;;;;;;3.50;2.30;;;;;;;23.08;100.00;101091.41;4880489;29;20121;-66
2021/08/19 06:58:25;;;;;;;5.22;2.20;;;;;;;23.48;100.00;101085.25;4868108;29;20490;-67
2021/08/19 07:01:11;;;;;;;4.28;2.40;;;;;;;23.40;100.00;101095.59;4880084;29;20462;-67
2021/08/19 07:03:56;;;;;;;2.60;2.10;;;;;;;23.48;100.00;101092.44;4880085;29;20388;-67
2021/08/19 07:06:42;;;;;;;5.38;2.40;;;;;;;23.65;100.00;101092.19;4881630;29;20025;-68
2021/08/19 07:09:28;;;;;;;2.95;2.53;;;;;;;23.76;100.00;101091.50;4867257;29;20040;-68
2021/08/19 07:12:14;;;;;;;6.35;2.40;;;;;;;23.48;100.00;101088.91;4880355;29;20438;-67
2021/08/19 07:15:00;;;;;;;3.63;2.40;;;;;;;24.17;100.00;101101.19;4881163;29;20101;-68
2021/08/19 07:17:45;;;;;;;3.28;2.22;;;;;;;23.96;100.00;101097.28;4880277;29;20039;-67
2021/08/19 07:20:31;;;;;;;3.08;2.33;;;;;;;24.74;100.00;101107.94;4881987;29;20045;-68
2021/08/19 07:23:17;;;;;;;4.20;2.13;;;;;;;24.24;100.00;101101.63;4879758;29;20088;-67
2021/08/19 07:26:03;;;;;;;8.90;3.22;;;;;;;24.21;100.00;101099.16;4881193;29;20089;-66
2021/08/19 07:28:51;;;;;;;2.67;2.08;;;;;;;23.20;100.00;101098.69;4867670;29;20021;-67
2021/08/19 07:31:39;;;;;;;5.03;2.20;;;;;;;22.99;100.00;101093.81;4866642;29;20049;-67
2021/08/19 07:34:24;;;;;;;3.03;2.20;;;;;;;23.52;100.00;101094.81;4866577;29;20160;-66
2021/08/19 07:37:10;;;;;;;3.50;2.10;;;;;;;23.94;100.00;101091.16;4879746;29;20029;-66
2021/08/19 07:39:56;;;;;;;3.75;2.38;;;;;;;24.48;100.00;101094.63;4867163;29;20115;-66
2021/08/19 07:42:43;;;;;;;2.75;1.90;;;;;;;24.42;100.00;101100.38;4866955;29;20044;-66
2021/08/19 07:45:30;;;;;;;2.40;1.90;;;;;;;24.62;100.00;101099.91;4879618;29;20518;-66
2021/08/19 07:48:15;;;;;;;4.93;2.35;;;;;;;24.62;100.00;101100.75;4880324;29;20083;-67
2021/08/19 07:51:01;;;;;;;3.17;2.30;;;;;;;24.72;100.00;101104.53;4881268;29;20092;-66
2021/08/19 07:53:47;;;;;;;2.60;2.17;;;;;;;25.38;100.00;101107.81;4880075;29;20057;-67
2021/08/19 07:56:33;;;;;;;2.25;2.00;;;;;;;25.86;100.00;101108.72;4881294;29;20052;-66
2021/08/19 07:59:19;;;;;;;4.82;4.15;;;;;;;25.62;100.00;101107.84;4879528;29;20029;-67
2021/08/19 08:02:04;;;;;;;2.92;2.20;;;;;;;26.03;98.65;101105.66;4882691;29;20116;-66
2021/08/19 08:04:50;;;;;;;2.60;2.20;;;;;;;25.68;100.00;101102.88;4882983;29;20210;-66
2021/08/19 08:07:36;;;;;;;5.43;2.50;;;;;;;25.22;100.00;101107.16;4882648;29;20040;-67
2021/08/19 08:10:22;;;;;;;4.53;2.53;;;;;;;26.00;100.00;101103.22;4870559;29;20052;-66
2021/08/19 08:13:09;;;;;;;2.55;2.15;;;;;;;25.58;97.64;101099.16;4884621;29;20037;-67
2021/08/19 08:15:54;;;;;;;3.78;2.15;;;;;;;25.58;97.71;101103.66;4882820;29;20120;-67
2021/08/19 08:18:40;;;;;;;3.40;2.10;;;;;;;26.08;95.26;101103.50;4884061;29;20033;-67
2021/08/19 08:21:26;;;;;;;2.95;2.30;;;;;;;26.26;93.23;101097.59;4883604;29;20461;-67
2021/08/19 08:24:12;;;;;;;4.38;2.40;;;;;;;26.83;92.08;101109.22;4870769;29;20047;-66
2021/08/19 08:26:59;;;;;;;2.70;2.15;;;;;;;25.71;97.89;101102.66;4884405;29;20079;-67
2021/08/19 08:29:44;;;;;;;3.38;2.40;;;;;;;25.44;100.00;101098.47;4884945;29;20048;-68
2021/08/19 08:32:30;;;;;;;2.50;2.17;;;;;;;25.69;98.15;101101.94;4884801;29;20115;-67
2021/08/19 08:35:16;;;;;;;5.65;2.80;;;;;;;25.91;96.54;101098.47;4884160;29;20042;-67
2021/08/19 08:38:05;;;;;;;4.15;2.95;;;;;;;25.93;98.46;101096.56;4882486;29;20040;-66
2021/08/19 08:40:52;;;;;;;5.15;3.00;;;;;;;25.75;98.54;101098.78;4882351;29;20112;-66
2021/08/19 08:43:39;;;;;;;4.10;2.55;;;;;;;26.13;95.31;101096.81;4882836;29;20045;-67
2021/08/19 08:46:26;;;;;;;3.85;2.42;;;;;;;26.37;93.22;101100.28;4882151;29;20094;-67
2021/08/19 08:49:34;;;;;;;3.80;2.20;;;;;;;26.41;93.04;101103.63;4882401;29;20408;-68
2021/08/19 08:52:20;;;;;;;3.17;2.45;;;;;;;26.89;91.95;101097.97;4883133;29;20423;-66
2021/08/19 08:55:06;;;;;;;2.80;2.28;;;;;;;27.11;88.51;101102.50;4882088;29;20045;-67
2021/08/19 08:57:54;;;;;;;4.43;2.40;;;;;;;26.52;91.54;101103.66;4882505;29;20036;-67
2021/08/19 09:00:42;;;;;;;4.53;2.50;;;;;;;27.92;85.51;101093.13;4870838;29;20041;-68
2021/08/19 09:03:28;;;;;;;3.70;2.80;;;;;;;25.76;93.82;101099.66;4882818;29;20108;-66
2021/08/19 09:06:25;;;;;;;3.53;2.65;;;;;;;26.05;95.72;101095.66;4883954;29;20097;-67
2021/08/19 09:09:23;;;;;;;3.78;2.72;;;;;;;26.16;93.12;101093.03;4882273;29;20116;-66
2021/08/19 09:12:09;;;;;;;3.38;2.63;;;;;;;26.20;93.41;101092.66;4882316;29;20085;-66
2021/08/19 09:14:55;;;;;;;3.70;2.63;;;;;;;26.04;92.68;101088.59;4882298;29;20431;-67
2021/08/19 09:17:52;;;;;;;5.93;2.92;;;;;;;26.03;94.28;101084.16;4882056;29;20029;-67
2021/08/19 09:20:42;;;;;;;2.80;2.50;;;;;;;27.28;87.94;101075.13;4869950;29;20033;-66
2021/08/19 09:23:28;;;;;;;4.35;2.80;;;;;;;27.37;88.93;101083.31;4883548;29;20033;-66
2021/08/19 09:26:26;;;;;;;3.45;2.53;;;;;;;28.14;83.42;101074.19;4883689;29;20037;-67
2021/08/19 09:29:24;;;;;;;3.40;2.60;;;;;;;26.59;85.41;101081.56;4881639;29;20063;-66
2021/08/19 09:32:10;;;;;;;2.67;2.40;;;;;;;26.90;86.05;101078.19;4882251;29;20124;-67
2021/08/19 09:34:55;;;;;;;3.92;2.92;;;;;;;27.28;85.14;101085.91;4881983;29;20025;-66
2021/08/19 09:37:42;;;;;;;3.50;2.70;;;;;;;27.20;84.68;101080.28;4869917;29;20033;-67
2021/08/19 09:40:28;;;;;;;5.90;2.78;;;;;;;26.84;89.88;101078.66;4881911;29;20025;-67
2021/08/19 09:43:14;;;;;;;4.13;2.70;;;;;;;26.89;87.92;101078.31;4882178;29;20032;-68
2021/08/19 09:45:59;;;;;;;4.45;2.70;;;;;;;26.64;93.06;101079.38;4881616;29;20101;-68
2021/08/19 09:48:45;;;;;;;3.65;2.67;;;;;;;27.20;85.84;101085.66;4883625;29;20025;-67
2021/08/19 09:51:31;;;;;;;4.10;2.50;;;;;;;27.42;84.12;101074.88;4882703;29;20104;-67
2021/08/19 09:54:27;;;;;;;2.80;2.50;;;;;;;27.35;81.98;101079.06;4880997;29;20067;-67
2021/08/19 09:57:13;;;;;;;3.53;2.75;;;;;;;27.51;78.31;101070.59;4880773;29;20029;-67
2021/08/19 09:59:59;;;;;;;5.85;2.85;;;;;;;28.11;75.03;101070.88;4881640;29;20025;-67
2021/08/19 10:02:45;;;;;;;3.67;2.92;;;;;;;27.81;79.86;101073.44;4881182;29;20033;-66
2021/08/19 10:05:31;;;;;;;3.75;3.15;;;;;;;27.32;80.96;101068.53;4880834;29;20032;-67
2021/08/19 10:08:17;;;;;;;4.88;2.88;;;;;;;26.87;80.50;101064.13;4880908;29;20391;-68
2021/08/19 10:11:03;;;;;;;5.85;3.03;;;;;;;27.17;80.04;101051.75;4882097;29;20124;-68
2021/08/19 10:13:51;;;;;;;5.03;2.70;;;;;;;27.96;76.30;101058.72;4880800;29;20029;-68
2021/08/19 10:16:38;;;;;;;3.50;3.00;;;;;;;27.58;76.39;101051.13;4880298;29;20445;-67
2021/08/19 10:19:41;;;;;;;3.08;2.63;;;;;;;27.45;79.67;101055.81;4880334;29;20112;-67
2021/08/19 10:22:27;;;;;;;5.80;2.75;;;;;;;27.75;76.02;101045.19;4880351;29;20056;-68
2021/08/19 10:25:14;;;;;;;4.40;2.78;;;;;;;28.08;75.13;101045.06;4880438;29;20506;-68
2021/08/19 10:28:13;;;;;;;5.57;2.80;;;;;;;27.73;71.34;101041.78;4880261;29;20088;-68
2021/08/19 10:30:59;;;;;;;3.90;2.47;;;;;;;27.08;76.66;101033.66;4880833;29;20044;-67
2021/08/19 10:33:44;;;;;;;4.88;2.80;;;;;;;28.07;71.10;101031.72;4882064;29;20060;-67
2021/08/19 10:36:30;;;;;;;3.55;2.92;;;;;;;28.16;69.72;101031.78;4881428;29;20068;-68
2021/08/19 10:39:19;;;;;;;3.80;2.55;;;;;;;28.10;70.12;101021.56;4880267;29;20044;-68
2021/08/19 10:42:08;;;;;;;3.92;2.58;;;;;;;28.03;72.74;101023.03;4880663;29;20355;-68
2021/08/19 10:44:57;;;;;;;5.07;2.80;;;;;;;27.46;70.76;101022.50;4880868;29;20029;-67
2021/08/19 10:47:43;;;;;;;3.30;2.65;;;;;;;27.05;71.78;101022.31;4880508;29;20036;-67
2021/08/19 10:50:41;;;;;;;4.55;3.00;;;;;;;27.64;67.77;101026.34;4867097;29;20039;-67
2021/08/19 10:53:29;;;;;;;3.15;2.30;;;;;;;28.04;66.35;101019.38;4880001;29;20048;-67
2021/08/19 10:56:40;;;;;;;3.60;2.63;;;;;;;28.35;69.12;101020.28;4879295;29;20129;-66
2021/08/19 10:59:31;;;;;;;3.80;2.78;;;;;;;28.15;73.10;101022.00;4868117;29;20462;-66
2021/08/19 11:02:36;;;;;;;3.75;2.88;;;;;;;28.18;70.05;101027.13;4868504;29;20040;-66
2021/08/19 11:05:27;;;;;;;4.40;2.80;;;;;;;27.92;71.78;101015.00;4879817;29;20031;-66
2021/08/19 11:08:13;;;;;;;5.03;2.80;;;;;;;28.19;69.84;101018.06;4880101;29;20088;-66
2021/08/19 11:10:59;;;;;;;4.00;3.00;;;;;;;28.33;65.16;101004.22;4881349;29;20416;-67
2021/08/19 11:13:45;;;;;;;4.55;3.63;;;;;;;28.44;68.86;101006.91;4880065;29;20093;-66
2021/08/19 11:16:32;;;;;;;3.40;2.80;;;;;;;28.56;64.72;101010.38;4879449;29;20044;-66
2021/08/19 11:19:20;;;;;;;2.75;2.40;;;;;;;28.32;64.00;101001.69;4881602;29;20032;-66
2021/08/19 11:22:07;;;;;;;5.68;2.65;;;;;;;28.14;64.64;100993.34;4866723;29;20449;-67
2021/08/19 11:24:57;;;;;;;4.35;2.60;;;;;;;28.61;62.06;100998.19;4881778;29;20039;-67
2021/08/19 11:27:42;;;;;;;4.13;2.67;;;;;;;28.78;59.85;100989.47;4869626;29;20025;-67
2021/08/19 11:30:58;;;;;;;4.18;2.85;;;;;;;29.19;59.28;100992.06;4881568;29;20374;-71
2021/08/19 11:34:06;;;;;;;5.45;2.67;;;;;;;29.33;57.22;100980.84;4880771;29;20033;-67
2021/08/19 11:36:52;;;;;;;3.40;3.10;;;;;;;29.52;55.27;100980.00;4883698;29;20033;-67
2021/08/19 11:39:38;;;;;;;4.25;3.10;;;;;;;29.43;54.12;100980.88;4883593;29;20115;-66
2021/08/19 11:42:32;;;;;;;3.53;2.78;;;;;;;29.18;52.20;100978.69;4870344;29;20032;-67
2021/08/19 11:45:21;;;;;;;2.42;2.22;;;;;;;28.66;53.72;100974.38;4883263;29;20029;-66
2021/08/19 11:48:07;;;;;;;4.18;2.65;;;;;;;29.06;52.24;100972.56;4870937;29;20049;-66
2021/08/19 11:50:54;;;;;;;3.58;2.60;;;;;;;29.21;52.72;100970.31;4871348;29;20473;-67
2021/08/19 11:53:49;;;;;;;5.32;2.50;;;;;;;29.45;52.98;100966.22;4882954;29;20060;-67
2021/08/19 11:56:37;;;;;;;3.70;2.83;;;;;;;30.03;51.41;100962.56;4883108;29;20028;-66
2021/08/19 11:59:22;;;;;;;3.78;2.55;;;;;;;29.37;51.06;100957.97;4870985;29;20032;-66
2021/08/19 12:02:12;;;;;;;3.92;2.22;;;;;;;29.43;51.76;100954.72;4885187;29;20039;-67
2021/08/19 12:05:03;;;;;;;3.45;2.38;;;;;;;29.62;51.62;100960.13;4882788;29;20044;-66
2021/08/19 12:07:51;;;;;;;3.90;2.38;;;;;;;29.39;52.29;100947.91;4883009;29;20356;-66
2021/08/19 12:10:37;;;;;;;5.50;2.90;;;;;;;29.46;51.94;100943.66;4882976;29;20037;-66
2021/08/19 12:13:24;;;;;;;4.63;3.15;;;;;;;29.57;51.40;100940.81;4883108;29;20032;-66
2021/08/19 12:16:10;;;;;;;4.38;3.15;;;;;;;29.32;51.86;100944.03;4884370;29;20129;-66
2021/08/19 12:19:38;;;;;;;4.55;2.53;;;;;;;29.28;51.97;100933.66;4882803;29;20340;-66
2021/08/19 12:22:24;;;;;;;3.85;2.33;;;;;;;29.49;51.00;100937.94;4807597;29;20035;-66
2021/08/19 12:25:19;;;;;;;3.08;2.33;;;;;;;29.21;51.60;100932.53;4883604;29;20443;-67
2021/08/19 12:28:05;;;;;;;4.30;2.22;;;;;;;29.41;51.10;100926.16;4882430;29;20037;-67
2021/08/19 12:31:08;;;;;;;2.83;2.42;;;;;;;29.45;50.54;100928.41;4883427;29;20146;-67
2021/08/19 12:34:02;;;;;;;4.28;2.20;;;;;;;28.91;50.63;100922.66;4883649;29;20036;-66
2021/08/19 12:36:48;;;;;;;6.22;2.60;;;;;;;29.21;50.54;100925.28;4883599;29;20374;-67
2021/08/19 12:39:45;;;;;;;3.90;2.40;;;;;;;29.43;49.50;100929.56;4883539;29;20100;-66
2021/08/19 12:42:35;;;;;;;3.22;2.50;;;;;;;29.68;49.79;100919.06;4882752;29;20328;-66
2021/08/19 12:45:22;;;;;;;5.25;2.58;;;;;;;29.78;48.47;100921.75;4882822;29;20029;-67
2021/08/19 12:48:10;;;;;;;5.80;2.60;;;;;;;29.41;48.96;100912.66;4882233;29;20029;-67
2021/08/19 12:51:20;;;;;;;4.22;2.67;;;;;;;28.76;50.61;100909.69;4882725;29;20040;-67
2021/08/19 12:54:08;;;;;;;2.83;2.53;;;;;;;29.90;49.00;100920.63;4883585;29;20072;-67
2021/08/19 12:56:59;;;;;;;3.55;2.60;;;;;;;29.99;48.46;100919.72;4882095;29;20029;-68
2021/08/19 12:59:45;;;;;;;4.38;2.28;;;;;;;30.36;47.62;100907.13;4883480;29;20029;-66
2021/08/19 13:02:31;;;;;;;3.55;2.30;;;;;;;29.89;47.09;100902.69;4883770;29;20025;-67
2021/08/19 13:05:18;;;;;;;2.67;2.03;;;;;;;30.27;46.93;100894.50;4882569;29;21410;-67
2021/08/19 13:08:04;;;;;;;4.90;2.80;;;;;;;30.65;45.61;100900.59;4882570;29;20097;-66
2021/08/19 13:10:50;;;;;;;3.78;2.60;;;;;;;30.90;46.18;100901.78;4882890;29;20068;-67